Time;durP1;ratioP1;P1;durP2;ratioP2;P2;SDS_P1;SDS_P2;PMS_P1;PMS_P2;Temp;Humidity;BMP_temperature;BMP_pressure;BME280_temperature;BME280_humidity;BME280_pressure;Samples;Min_cycle;Max_cycle;Signal;HPM_P1;HPM_P2
2023/04/13 00:02:09;;;;;;;3.22;1.00;;;;;;;5.95;100.00;99325.78;4954254;28;20038;-74
2023/04/13 00:04:35;;;;;;;2.67;1.17;;;;;;;5.94;100.00;99321.47;4952546;28;20626;-73
2023/04/13 00:07:01;;;;;;;3.53;1.65;;;;;;;5.92;100.00;99327.72;4923330;28;20046;-72
2023/04/13 00:09:30;;;;;;;2.80;0.98;;;;;;;5.82;100.00;99320.31;4957523;28;20070;-72
2023/04/13 00:11:59;;;;;;;3.20;1.38;;;;;;;5.70;100.00;99323.53;4937518;28;20038;-73
2023/04/13 00:14:32;;;;;;;2.40;1.10;;;;;;;5.56;100.00;99325.06;4940525;28;20050;-73
2023/04/13 00:17:01;;;;;;;1.27;0.90;;;;;;;5.42;100.00;99311.78;4950022;28;20034;-72
2023/04/13 00:19:27;;;;;;;1.40;1.00;;;;;;;5.29;100.00;99322.84;4953340;28;20047;-73
2023/04/13 00:21:53;;;;;;;1.02;1.00;;;;;;;5.18;100.00;99319.91;4934360;28;20046;-73
2023/04/13 00:24:19;;;;;;;2.20;0.80;;;;;;;5.08;100.00;99313.38;4952015;28;20486;-73
2023/04/13 00:26:45;;;;;;;1.52;0.90;;;;;;;5.00;100.00;99309.34;4955301;28;20101;-73
2023/04/13 00:29:11;;;;;;;1.27;1.00;;;;;;;4.95;100.00;99303.47;4952357;28;20034;-73
2023/04/13 00:31:38;;;;;;;1.65;0.93;;;;;;;4.89;100.00;99294.13;4938043;28;20041;-72
2023/04/13 00:34:04;;;;;;;1.83;1.05;;;;;;;4.89;100.00;99293.25;4940411;28;20085;-72
2023/04/13 00:36:30;;;;;;;1.02;0.93;;;;;;;4.86;100.00;99293.41;4935647;28;20088;-72
2023/04/13 00:38:56;;;;;;;5.93;1.20;;;;;;;4.84;100.00;99287.38;4951622;28;20078;-72
2023/04/13 00:41:23;;;;;;;1.20;1.05;;;;;;;4.82;100.00;99287.47;4951729;28;20066;-72
2023/04/13 00:43:49;;;;;;;1.98;1.20;;;;;;;4.81;100.00;99291.00;4952864;28;20101;-72
2023/04/13 00:46:19;;;;;;;2.45;0.90;;;;;;;4.80;100.00;99277.97;4935627;28;20104;-73
2023/04/13 00:48:47;;;;;;;3.65;1.30;;;;;;;4.76;100.00;99280.69;4935309;28;20042;-72
2023/04/13 00:51:16;;;;;;;1.83;1.20;;;;;;;4.75;100.00;99265.06;4953339;28;20112;-73
2023/04/13 00:53:42;;;;;;;1.70;1.40;;;;;;;4.74;100.00;99274.69;4935065;28;20041;-72
2023/04/13 00:56:08;;;;;;;1.65;1.08;;;;;;;4.72;100.00;99266.06;4956394;28;20042;-73
2023/04/13 00:58:34;;;;;;;3.72;1.30;;;;;;;4.71;100.00;99263.50;4956984;28;20069;-73
2023/04/13 01:00:59;;;;;;;1.08;1.00;;;;;;;4.72;100.00;99257.31;4939744;28;20042;-73
2023/04/13 01:03:26;;;;;;;1.60;1.00;;;;;;;4.72;100.00;99255.56;4951777;28;20129;-73
2023/04/13 01:06:16;;;;;;;1.63;1.08;;;;;;;4.70;100.00;99246.94;4938275;28;20683;-72
2023/04/13 01:08:47;;;;;;;1.10;1.00;;;;;;;4.71;100.00;99245.16;4939372;28;20112;-73
2023/04/13 01:11:26;;;;;;;1.33;1.08;;;;;;;4.70;100.00;99244.31;4935928;28;20145;-73
2023/04/13 01:14:16;;;;;;;2.15;1.15;;;;;;;4.71;100.00;99235.53;4950813;28;20141;-73
2023/04/13 01:16:44;;;;;;;0.90;0.90;;;;;;;4.71;100.00;99240.75;4954614;28;20509;-73
2023/04/13 01:19:17;;;;;;;1.40;1.20;;;;;;;4.72;100.00;99224.09;4938648;28;20625;-73
2023/04/13 01:21:43;;;;;;;2.28;1.25;;;;;;;4.72;100.00;99228.50;4937365;28;20730;-73
2023/04/13 01:24:23;;;;;;;2.08;1.10;;;;;;;4.73;100.00;99222.31;4952334;28;20054;-73
2023/04/13 01:26:57;;;;;;;1.88;1.17;;;;;;;4.75;100.00;99229.19;4923758;28;20085;-73
2023/04/13 01:29:24;;;;;;;2.03;1.40;;;;;;;4.75;100.00;99231.81;4955640;28;20177;-73
2023/04/13 01:31:53;;;;;;;2.40;1.10;;;;;;;4.76;100.00;99230.88;4935207;28;20046;-73
2023/04/13 01:34:19;;;;;;;1.48;1.38;;;;;;;4.78;100.00;99230.00;4933474;28;20034;-73
2023/04/13 01:36:45;;;;;;;2.72;1.55;;;;;;;4.79;100.00;99221.19;4952512;28;20058;-73
2023/04/13 01:39:18;;;;;;;2.67;1.40;;;;;;;4.81;100.00;99221.97;4950705;28;20433;-73
2023/04/13 01:41:44;;;;;;;2.05;1.70;;;;;;;4.81;100.00;99222.81;4949984;28;20034;-73
2023/04/13 01:44:10;;;;;;;2.67;1.67;;;;;;;4.82;100.00;99219.28;4934247;28;20481;-73
2023/04/13 01:46:36;;;;;;;1.80;1.55;;;;;;;4.84;100.00;99224.44;4924659;28;20899;-73
2023/04/13 01:49:03;;;;;;;4.20;1.50;;;;;;;4.84;100.00;99217.41;4937735;28;20057;-74
2023/04/13 01:51:33;;;;;;;1.95;1.60;;;;;;;4.85;100.00;99218.28;4941138;28;20037;-73
2023/04/13 01:54:11;;;;;;;1.95;1.20;;;;;;;4.86;100.00;99215.56;4951583;28;20557;-73
2023/04/13 01:56:38;;;;;;;1.63;1.20;;;;;;;4.86;100.00;99214.72;4948033;28;20260;-73
2023/04/13 01:59:04;;;;;;;1.35;1.25;;;;;;;4.85;100.00;99216.50;4938230;28;20058;-73
2023/04/13 02:01:30;;;;;;;3.28;1.40;;;;;;;4.85;100.00;99216.50;4939328;28;20737;-73
2023/04/13 02:03:55;;;;;;;2.95;1.60;;;;;;;4.86;100.00;99214.72;4955239;28;20038;-72
2023/04/13 02:06:21;;;;;;;2.08;1.40;;;;;;;4.84;100.00;99217.41;4954393;28;20057;-73
2023/04/13 02:08:47;;;;;;;5.07;1.50;;;;;;;4.84;100.00;99213.94;4923646;28;20018;-74
2023/04/13 02:11:12;;;;;;;1.33;1.23;;;;;;;4.85;100.00;99213.88;4951823;28;20034;-73
2023/04/13 02:13:38;;;;;;;1.85;1.40;;;;;;;4.84;100.00;99220.03;4954302;28;20584;-73
2023/04/13 02:16:07;;;;;;;2.25;1.35;;;;;;;4.85;100.00;99213.88;4951761;28;20042;-73
2023/04/13 02:18:33;;;;;;;3.85;1.80;;;;;;;4.86;100.00;99219.97;4936193;28;20042;-73
2023/04/13 02:21:08;;;;;;;2.28;1.33;;;;;;;4.86;100.00;99220.81;4955165;28;20050;-73
2023/04/13 02:23:40;;;;;;;2.58;1.42;;;;;;;4.87;100.00;99217.28;4932011;28;20034;-72
2023/04/13 02:26:12;;;;;;;2.58;1.27;;;;;;;4.87;100.00;99219.06;4933547;28;20074;-72
2023/04/13 02:28:39;;;;;;;5.97;1.42;;;;;;;4.87;100.00;99222.53;4949913;28;20154;-72
2023/04/13 02:31:05;;;;;;;3.78;1.50;;;;;;;4.87;100.00;99233.03;4931005;28;20042;-73
2023/04/13 02:33:32;;;;;;;1.60;1.45;;;;;;;4.88;100.00;99228.63;4919528;28;20042;-72
2023/04/13 02:35:58;;;;;;;1.40;1.30;;;;;;;4.88;100.00;99231.25;4955106;28;21231;-71
2023/04/13 02:38:24;;;;;;;1.77;1.40;;;;;;;4.87;100.00;99240.91;4935128;28;20237;-71
2023/04/13 02:40:54;;;;;;;2.22;1.50;;;;;;;4.88;100.00;99239.09;4951824;28;20641;-73
2023/04/13 02:43:20;;;;;;;1.80;1.33;;;;;;;4.89;100.00;99240.81;4922897;28;20355;-73
2023/04/13 02:45:45;;;;;;;1.75;1.30;;;;;;;4.88;100.00;99228.63;4955435;28;20058;-73
2023/04/13 02:48:11;;;;;;;2.00;1.58;;;;;;;4.89;100.00;99238.19;4956800;28;20039;-74
2023/04/13 02:50:37;;;;;;;2.35;1.35;;;;;;;4.90;100.00;99239.88;4937825;28;20294;-74
2023/04/13 02:53:02;;;;;;;1.77;1.40;;;;;;;4.89;100.00;99246.03;4955589;28;20116;-72
2023/04/13 02:55:28;;;;;;;2.38;1.67;;;;;;;4.89;100.00;99243.44;4937541;28;20189;-72
2023/04/13 02:57:54;;;;;;;4.05;1.45;;;;;;;4.90;100.00;99253.00;4956351;28;20034;-72
2023/04/13 03:00:20;;;;;;;2.70;1.80;;;;;;;4.90;100.00;99253.00;4953230;28;21046;-73
2023/04/13 03:02:46;;;;;;;6.10;2.40;;;;;;;4.91;100.00;99264.34;4936803;28;20034;-73
2023/04/13 03:05:12;;;;;;;3.17;2.25;;;;;;;4.91;100.00;99259.97;4954716;28;20114;-72
2023/04/13 03:07:38;;;;;;;2.38;1.67;;;;;;;4.92;100.00;99266.91;4953769;28;20034;-73
2023/04/13 03:10:04;;;;;;;4.10;1.50;;;;;;;4.92;100.00;99261.66;4947611;28;20042;-73
2023/04/13 03:12:31;;;;;;;2.00;1.80;;;;;;;4.94;100.00;99267.66;4947994;28;20039;-74
2023/04/13 03:15:00;;;;;;;2.45;1.90;;;;;;;4.95;100.00;99263.28;4933774;28;20178;-72
2023/04/13 03:17:27;;;;;;;2.28;1.25;;;;;;;4.96;100.00;99270.22;4935315;28;20051;-73
2023/04/13 03:19:53;;;;;;;2.80;1.77;;;;;;;4.96;100.00;99268.44;4933801;28;20046;-73
2023/04/13 03:22:20;;;;;;;1.42;1.20;;;;;;;4.95;100.00;99271.97;4934781;28;20124;-73
2023/04/13 03:24:46;;;;;;;0.95;0.95;;;;;;;4.96;100.00;99272.84;4951773;28;20042;-72
2023/04/13 03:27:11;;;;;;;2.40;1.13;;;;;;;4.94;100.00;99269.44;4950484;28;20522;-73
2023/04/13 03:29:37;;;;;;;2.42;1.05;;;;;;;4.90;100.00;99276.59;4955054;28;20034;-73
2023/04/13 03:32:02;;;;;;;1.33;0.88;;;;;;;4.88;100.00;99287.19;4956150;28;20038;-73
2023/04/13 03:34:28;;;;;;;1.65;0.88;;;;;;;4.84;100.00;99282.13;4949565;28;20023;-73
2023/04/13 03:36:53;;;;;;;0.98;0.80;;;;;;;4.79;100.00;99282.34;4949908;28;20543;-73
2023/04/13 03:39:19;;;;;;;0.95;0.77;;;;;;;4.74;100.00;99284.34;4950698;28;20149;-73
2023/04/13 03:41:45;;;;;;;1.20;0.88;;;;;;;4.70;100.00;99278.41;4931170;28;20045;-73
2023/04/13 03:44:10;;;;;;;2.08;1.20;;;;;;;4.70;100.00;99278.41;4951012;28;20042;-74
2023/04/13 03:46:36;;;;;;;3.47;1.00;;;;;;;4.67;100.00;99281.13;4955251;28;20166;-73
2023/04/13 03:49:08;;;;;;;1.13;1.02;;;;;;;4.66;100.00;99282.06;4934202;28;20066;-74
2023/04/13 03:51:34;;;;;;;1.08;1.05;;;;;;;4.66;100.00;99281.19;4940126;28;20173;-73
2023/04/13 03:54:00;;;;;;;1.35;1.25;;;;;;;4.62;100.00;99280.50;4953633;28;20139;-72
2023/04/13 03:56:25;;;;;;;1.58;1.27;;;;;;;4.59;100.00;99280.66;4954182;28;20105;-73
2023/04/13 03:58:52;;;;;;;2.47;1.13;;;;;;;4.57;100.00;99290.38;4938280;28;20035;-73
2023/04/13 04:01:18;;;;;;;1.85;1.15;;;;;;;4.53;100.00;99292.25;4923502;28;20035;-73
2023/04/13 04:03:43;;;;;;;2.35;1.17;;;;;;;4.51;100.00;99290.63;4921485;28;20786;-73
2023/04/13 04:06:09;;;;;;;3.28;1.30;;;;;;;4.47;100.00;99290.75;4952463;28;20066;-72
2023/04/13 04:08:35;;;;;;;1.95;1.30;;;;;;;4.45;100.00;99296.97;4953153;28;20066;-73
2023/04/13 04:11:00;;;;;;;2.15;0.93;;;;;;;4.43;100.00;99307.56;4948797;28;20108;-73
2023/04/13 04:13:26;;;;;;;2.40;1.17;;;;;;;4.42;100.00;99308.44;4937026;28;20546;-73
2023/04/13 04:15:51;;;;;;;3.28;1.40;;;;;;;4.44;100.00;99311.00;4948903;28;20063;-72
2023/04/13 04:18:17;;;;;;;2.72;1.25;;;;;;;4.45;100.00;99316.19;4939094;28;20101;-72
2023/04/13 04:20:42;;;;;;;2.00;1.00;;;;;;;4.49;100.00;99319.53;4933956;28;20042;-72
2023/04/13 04:23:09;;;;;;;1.67;1.25;;;;;;;4.49;100.00;99317.75;4933749;28;20528;-72
2023/04/13 04:25:36;;;;;;;2.72;1.23;;;;;;;4.51;100.00;99319.47;4937092;28;20097;-75
2023/04/13 04:28:03;;;;;;;1.92;1.40;;;;;;;4.51;100.00;99319.47;4935940;28;20049;-73
2023/04/13 04:30:32;;;;;;;1.70;1.10;;;;;;;4.52;100.00;99322.00;4949379;28;20460;-73
2023/04/13 04:32:58;;;;;;;4.50;1.00;;;;;;;4.52;100.00;99315.91;4929692;28;20033;-73
2023/04/13 04:35:32;;;;;;;5.38;1.15;;;;;;;4.51;100.00;99328.16;4952119;28;20116;-72
2023/04/13 04:38:04;;;;;;;1.40;1.05;;;;;;;4.51;100.00;99324.72;4955528;28;20078;-72
2023/04/13 04:40:29;;;;;;;1.08;1.00;;;;;;;4.49;100.00;99322.97;4954645;28;20780;-73
2023/04/13 04:42:56;;;;;;;3.67;1.13;;;;;;;4.49;100.00;99327.41;4910772;28;20043;-72
2023/04/13 04:45:22;;;;;;;2.85;1.40;;;;;;;4.47;100.00;99327.44;4959147;28;20042;-74
2023/04/13 04:47:49;;;;;;;1.33;1.13;;;;;;;4.48;100.00;99334.38;4941842;28;20935;-73
2023/04/13 04:50:16;;;;;;;2.42;1.10;;;;;;;4.48;100.00;99334.38;4941589;28;20446;-73
2023/04/13 04:52:42;;;;;;;1.48;1.27;;;;;;;4.47;100.00;99334.47;4941875;28;20034;-73
2023/04/13 04:55:08;;;;;;;3.22;1.30;;;;;;;4.48;100.00;99336.19;4958981;28;20069;-72
2023/04/13 04:57:34;;;;;;;3.85;1.38;;;;;;;4.48;100.00;99339.63;4955821;28;20030;-72
2023/04/13 05:00:01;;;;;;;1.20;1.10;;;;;;;4.46;100.00;99338.84;4957804;28;20066;-73
2023/04/13 05:02:27;;;;;;;2.90;1.70;;;;;;;4.47;100.00;99353.66;4924141;28;20053;-75
2023/04/13 05:04:52;;;;;;;4.90;1.80;;;;;;;4.47;100.00;99353.66;4933924;28;20108;-73
2023/04/13 05:07:18;;;;;;;6.45;1.67;;;;;;;4.47;100.00;99356.28;4950069;28;20046;-72
2023/04/13 05:09:44;;;;;;;2.70;1.35;;;;;;;4.52;100.00;99357.88;4948651;28;22560;-73
2023/04/13 05:12:10;;;;;;;2.47;1.20;;;;;;;4.58;100.00;99352.34;4949747;28;20030;-72
2023/04/13 05:14:36;;;;;;;3.63;1.02;;;;;;;4.66;100.00;99360.72;4925343;28;20140;-71
2023/04/13 05:17:02;;;;;;;2.25;1.23;;;;;;;4.74;100.00;99366.47;4939382;28;20937;-70
2023/04/13 05:19:27;;;;;;;5.07;1.70;;;;;;;4.80;100.00;99367.13;4936288;28;20039;-71
2023/04/13 05:21:53;;;;;;;4.30;1.58;;;;;;;4.86;100.00;99366.84;4938866;28;20042;-70
2023/04/13 05:24:18;;;;;;;4.07;1.35;;;;;;;4.91;100.00;99380.59;4951913;28;20627;-71
2023/04/13 05:26:44;;;;;;;3.92;1.33;;;;;;;4.98;100.00;99376.78;4955599;28;20038;-71
2023/04/13 05:29:09;;;;;;;5.82;1.27;;;;;;;5.07;100.00;99375.47;4958462;28;20164;-71
2023/04/13 05:31:35;;;;;;;3.65;1.50;;;;;;;5.14;100.00;99378.69;4937823;28;20042;-69
2023/04/13 05:34:01;;;;;;;5.10;1.40;;;;;;;5.21;100.00;99384.50;4953105;28;20069;-70
2023/04/13 05:36:28;;;;;;;2.63;1.38;;;;;;;5.24;100.00;99386.97;4956180;28;20051;-70
2023/04/13 05:38:55;;;;;;;2.92;1.30;;;;;;;5.27;100.00;99395.56;4924459;28;20117;-71
2023/04/13 05:41:21;;;;;;;2.83;1.50;;;;;;;5.30;100.00;99390.16;4955174;28;20037;-71
2023/04/13 05:43:48;;;;;;;4.35;1.33;;;;;;;5.31;100.00;99396.28;4956778;28;20038;-71
2023/04/13 05:46:14;;;;;;;1.17;1.00;;;;;;;5.31;100.00;99396.28;4922140;28;20034;-71
2023/04/13 05:48:42;;;;;;;2.13;1.42;;;;;;;5.30;100.00;99403.28;4940487;28;20034;-70
2023/04/13 05:51:07;;;;;;;4.50;1.35;;;;;;;5.32;100.00;99410.25;4954225;28;20034;-71
2023/04/13 05:53:33;;;;;;;2.10;1.30;;;;;;;5.33;100.00;99412.78;4933923;28;20076;-72
2023/04/13 05:55:58;;;;;;;2.72;1.55;;;;;;;5.33;100.00;99412.78;4953141;28;20042;-72
2023/04/13 05:58:25;;;;;;;3.45;1.35;;;;;;;5.33;100.00;99419.81;4935648;28;20573;-70
2023/04/13 06:00:50;;;;;;;3.65;1.35;;;;;;;5.32;100.00;99420.75;4937222;28;20070;-70
2023/04/13 06:03:16;;;;;;;4.35;1.88;;;;;;;5.30;100.00;99434.78;4959303;28;20091;-71
2023/04/13 06:05:42;;;;;;;3.30;1.80;;;;;;;5.32;100.00;99431.25;4935945;28;20096;-70
2023/04/13 06:08:09;;;;;;;3.72;1.70;;;;;;;5.36;100.00;99433.66;4956222;28;20092;-70
2023/04/13 06:10:38;;;;;;;7.43;1.85;;;;;;;5.43;100.00;99436.84;4951232;28;20133;-70
2023/04/13 06:13:04;;;;;;;4.43;2.08;;;;;;;5.52;100.00;99441.69;4954617;28;20062;-70
2023/04/13 06:15:30;;;;;;;4.03;2.03;;;;;;;5.61;100.00;99444.78;4954553;28;20100;-71
2023/04/13 06:17:55;;;;;;;5.15;2.10;;;;;;;5.66;100.00;99446.25;4953410;28;20061;-70
2023/04/13 06:20:21;;;;;;;6.03;2.17;;;;;;;5.71;100.00;99440.78;4958589;28;20073;-71
2023/04/13 06:22:46;;;;;;;9.93;2.35;;;;;;;5.76;100.00;99449.31;4953806;28;20096;-70
2023/04/13 06:25:13;;;;;;;6.32;2.40;;;;;;;5.85;100.00;99456.72;4958464;28;20073;-69
2023/04/13 06:27:39;;;;;;;8.20;2.00;;;;;;;5.98;100.00;99461.41;4932404;28;20120;-70
2023/04/13 06:30:09;;;;;;;4.85;2.42;;;;;;;6.08;100.00;99457.44;4938290;28;20038;-71
2023/04/13 06:32:35;;;;;;;4.38;2.00;;;;;;;6.17;100.00;99465.78;4958281;28;20026;-70
2023/04/13 06:35:02;;;;;;;3.63;1.80;;;;;;;6.27;100.00;99468.81;4956840;28;20039;-70
2023/04/13 06:37:29;;;;;;;3.85;1.67;;;;;;;6.39;100.00;99469.06;4956297;28;20577;-71
2023/04/13 06:39:56;;;;;;;7.05;2.53;;;;;;;6.62;100.00;99471.44;4959204;28;20077;-72
2023/04/13 06:42:22;;;;;;;7.05;1.75;;;;;;;6.79;100.00;99470.59;4954771;28;20346;-74
2023/04/13 06:44:48;;;;;;;5.15;1.98;;;;;;;6.82;100.00;99478.34;4934846;28;20053;-71
2023/04/13 06:47:14;;;;;;;5.20;1.80;;;;;;;6.93;100.00;99478.63;4937208;28;20050;-72
2023/04/13 06:49:40;;;;;;;2.85;1.48;;;;;;;6.97;100.00;99481.94;4941720;28;20052;-72
2023/04/13 06:52:06;;;;;;;4.13;1.27;;;;;;;6.97;100.00;99486.38;4937692;28;20034;-73
2023/04/13 06:54:31;;;;;;;6.05;1.50;;;;;;;7.01;100.00;99490.53;4941596;28;20038;-71
2023/04/13 06:56:57;;;;;;;3.75;1.05;;;;;;;7.06;100.00;99486.72;4954834;28;20050;-72
2023/04/13 06:59:23;;;;;;;5.55;1.15;;;;;;;7.06;100.00;99502.53;4948269;28;20109;-71
2023/04/13 07:01:48;;;;;;;2.88;1.33;;;;;;;7.15;100.00;99497.69;4934771;28;21927;-71
2023/04/13 07:04:14;;;;;;;1.50;1.05;;;;;;;7.25;100.00;99498.06;4954356;28;20039;-71
2023/04/13 07:06:39;;;;;;;2.60;1.00;;;;;;;7.26;100.00;99502.41;4954513;28;20081;-72
2023/04/13 07:09:05;;;;;;;3.65;1.42;;;;;;;7.17;100.00;99506.34;4934210;28;20066;-72
2023/04/13 07:11:31;;;;;;;1.45;1.00;;;;;;;7.09;100.00;99512.03;4913764;28;20260;-72
2023/04/13 07:13:56;;;;;;;1.00;0.93;;;;;;;7.01;100.00;99522.97;4932334;28;20050;-72
2023/04/13 07:16:22;;;;;;;4.60;1.05;;;;;;;6.92;100.00;99532.16;4935065;28;20031;-74
2023/04/13 07:18:48;;;;;;;3.03;1.15;;;;;;;6.83;100.00;99527.38;4953765;28;21014;-72
2023/04/13 07:21:13;;;;;;;1.75;1.02;;;;;;;6.74;100.00;99535.72;4958484;28;20998;-73
2023/04/13 07:23:39;;;;;;;1.77;1.23;;;;;;;6.72;100.00;99537.59;4951286;28;20093;-73
2023/04/13 07:26:06;;;;;;;1.98;1.20;;;;;;;6.70;100.00;99544.72;4932406;28;20057;-74
2023/04/13 07:28:31;;;;;;;4.28;1.23;;;;;;;6.70;100.00;99547.34;4929276;28;20045;-72
2023/04/13 07:30:57;;;;;;;2.00;0.95;;;;;;;6.64;100.00;99549.34;4927081;28;20125;-72
2023/04/13 07:33:22;;;;;;;3.88;1.05;;;;;;;6.67;100.00;99550.97;4949808;28;20034;-72
2023/04/13 07:35:50;;;;;;;3.53;1.23;;;;;;;6.70;100.00;99547.34;4951187;28;20164;-72
2023/04/13 07:38:15;;;;;;;2.05;0.90;;;;;;;6.75;100.00;99555.88;4950877;28;20050;-72
2023/04/13 07:40:41;;;;;;;0.80;0.80;;;;;;;6.82;100.00;99559.91;4952298;28;20516;-71
2023/04/13 07:43:06;;;;;;;2.90;0.82;;;;;;;6.87;100.00;99555.22;4946345;28;20518;-72
2023/04/13 07:45:32;;;;;;;2.38;0.93;;;;;;;6.86;100.00;99571.94;4949949;28;20125;-73
2023/04/13 07:47:58;;;;;;;2.08;0.68;;;;;;;6.84;100.00;99560.66;4948165;28;21643;-72
2023/04/13 07:50:23;;;;;;;3.25;0.90;;;;;;;6.86;100.00;99582.47;4933270;28;21248;-71
2023/04/13 07:52:50;;;;;;;1.52;1.00;;;;;;;6.86;100.00;99579.00;4945900;28;20105;-73
2023/04/13 07:55:16;;;;;;;2.88;1.10;;;;;;;6.84;100.00;99584.34;4931571;28;20077;-73
2023/04/13 07:57:41;;;;;;;1.40;0.82;;;;;;;6.82;100.00;99588.84;4929249;28;20057;-73
2023/04/13 08:00:09;;;;;;;1.63;1.00;;;;;;;6.78;100.00;99584.63;4947489;28;20070;-73
2023/04/13 08:02:35;;;;;;;4.07;0.95;;;;;;;6.72;100.00;99598.09;4947863;28;20038;-72
2023/04/13 08:05:01;;;;;;;1.98;1.00;;;;;;;6.68;100.00;99593.91;4946957;28;20031;-72
2023/04/13 08:07:26;;;;;;;2.05;1.00;;;;;;;6.63;100.00;99605.53;4927932;28;20046;-73
2023/04/13 08:09:52;;;;;;;2.65;1.25;;;;;;;6.64;100.00;99607.22;4946547;28;20085;-75
2023/04/13 08:12:18;;;;;;;3.90;1.00;;;;;;;6.73;100.00;99599.78;4911305;28;20620;-71
2023/04/13 08:14:46;;;;;;;3.20;0.95;;;;;;;6.85;100.00;99601.81;4948755;28;20367;-72
2023/04/13 08:17:11;;;;;;;3.92;0.85;;;;;;;7.09;100.00;99593.63;4950221;28;20051;-71
2023/04/13 08:19:37;;;;;;;4.90;0.88;;;;;;;7.31;100.00;99601.25;4934136;28;20235;-72
2023/04/13 08:22:03;;;;;;;2.72;0.85;;;;;;;7.36;100.00;99590.50;4945609;28;21625;-72
2023/04/13 08:24:29;;;;;;;1.55;0.73;;;;;;;7.37;100.00;99613.28;4949370;28;20042;-72
2023/04/13 08:26:57;;;;;;;3.80;1.05;;;;;;;7.30;100.00;99620.63;4946028;28;20113;-72
2023/04/13 08:29:26;;;;;;;1.70;0.95;;;;;;;7.23;100.00;99613.13;4928854;28;20053;-72
2023/04/13 08:31:52;;;;;;;2.97;1.10;;;;;;;7.11;100.00;99620.72;4921425;28;20065;-72
2023/04/13 08:34:17;;;;;;;1.58;0.85;;;;;;;7.11;100.00;99625.13;4940755;28;20042;-77
2023/04/13 08:36:46;;;;;;;6.30;1.50;;;;;;;7.08;100.00;99634.03;4935687;28;20195;-72
2023/04/13 08:39:13;;;;;;;2.17;1.02;;;;;;;6.99;100.00;99631.84;4953340;28;20034;-72
2023/04/13 08:41:44;;;;;;;1.98;0.68;;;;;;;6.96;100.00;99655.72;4934111;28;20153;-73
2023/04/13 08:44:12;;;;;;;0.80;0.60;;;;;;;6.83;100.00;99653.69;4953068;28;20034;-73
2023/04/13 08:46:39;;;;;;;0.90;0.60;;;;;;;6.68;100.00;99664.91;4949978;28;20830;-73
2023/04/13 08:49:07;;;;;;;2.25;0.80;;;;;;;6.44;100.00;99663.41;4954973;28;20133;-73
2023/04/13 08:51:33;;;;;;;1.55;0.60;;;;;;;6.24;100.00;99662.56;4932700;28;20054;-74
2023/04/13 08:53:58;;;;;;;1.45;0.80;;;;;;;6.35;100.00;99663.81;4934936;28;20039;-73
2023/04/13 08:56:25;;;;;;;2.00;1.00;;;;;;;6.49;100.00;99676.34;4954822;28;20058;-73
2023/04/13 08:59:10;;;;;;;2.05;0.68;;;;;;;6.65;100.00;99672.03;4923243;28;20129;-73
2023/04/13 09:01:37;;;;;;;0.88;0.82;;;;;;;6.79;100.00;99678.41;4957281;28;20129;-72
2023/04/13 09:04:09;;;;;;;3.10;0.75;;;;;;;6.83;100.00;99687.88;4938485;28;20043;-73
2023/04/13 09:06:39;;;;;;;3.15;0.77;;;;;;;6.79;100.00;99688.94;4954783;28;20034;-73
2023/04/13 09:09:12;;;;;;;2.63;0.80;;;;;;;6.78;100.00;99696.00;4936869;28;20045;-72
2023/04/13 09:11:38;;;;;;;;;;;;;;;6.74;100.00;99701.44;4951538;28;20130;-72
2023/04/13 09:14:04;;;;;;;1.95;0.70;;;;;;;6.67;100.00;99706.16;4949948;28;19929;-74
2023/04/13 09:16:37;;;;;;;2.70;1.00;;;;;;;6.63;100.00;99702.84;4935008;28;21014;-73
2023/04/13 09:19:03;;;;;;;0.80;0.77;;;;;;;6.63;100.00;99715.13;4953728;28;22152;-73
2023/04/13 09:21:40;;;;;;;1.23;0.70;;;;;;;6.60;100.00;99729.25;4955199;28;20038;-74
2023/04/13 09:24:06;;;;;;;1.13;0.60;;;;;;;6.54;100.00;99726.91;4956379;28;20168;-74
2023/04/13 09:26:58;;;;;;;0.90;0.60;;;;;;;6.41;100.00;99728.41;4953012;28;20054;-73
2023/04/13 09:29:23;;;;;;;1.33;0.90;;;;;;;6.37;100.00;99744.34;4920199;28;20082;-73
2023/04/13 09:31:49;;;;;;;1.27;0.60;;;;;;;6.32;100.00;99743.69;4928003;28;20045;-74
2023/04/13 09:34:26;;;;;;;1.90;0.70;;;;;;;6.29;100.00;99749.09;4955559;28;20052;-73
2023/04/13 09:36:53;;;;;;;0.50;0.50;;;;;;;6.25;100.00;99743.13;4951831;28;20042;-72
2023/04/13 09:39:26;;;;;;;0.50;0.50;;;;;;;6.21;100.00;99752.06;4954617;28;20038;-72
2023/04/13 09:41:53;;;;;;;1.33;0.82;;;;;;;6.24;100.00;99756.31;4950830;28;20046;-72
2023/04/13 09:44:21;;;;;;;0.85;0.68;;;;;;;6.37;100.00;99762.75;4953199;28;20042;-72
2023/04/13 09:47:03;;;;;;;1.90;0.60;;;;;;;6.66;100.00;99760.53;4952892;28;20026;-73
2023/04/13 09:49:38;;;;;;;1.40;0.90;;;;;;;6.92;100.00;99771.63;4953813;28;20080;-73
2023/04/13 09:52:07;;;;;;;2.05;0.70;;;;;;;7.12;100.00;99769.81;4931790;28;20154;-73
2023/04/13 09:54:33;;;;;;;4.60;1.20;;;;;;;7.32;100.00;99778.53;4932931;28;20038;-73
2023/04/13 09:56:58;;;;;;;2.78;0.90;;;;;;;7.53;100.00;99779.28;4932928;28;20232;-73
2023/04/13 09:59:24;;;;;;;2.38;1.13;;;;;;;7.84;100.00;99776.88;4953691;28;20053;-74
2023/04/13 10:01:50;;;;;;;2.70;1.02;;;;;;;7.92;100.00;99779.97;4926348;28;20053;-74
2023/04/13 10:04:16;;;;;;;1.38;0.90;;;;;;;8.05;100.00;99792.50;4940004;28;20522;-73
2023/04/13 10:06:43;;;;;;;3.38;1.17;;;;;;;8.23;100.00;99802.06;4955627;28;20026;-74
2023/04/13 10:09:10;;;;;;;2.60;1.00;;;;;;;8.28;100.00;99801.84;4958572;28;20039;-74
2023/04/13 10:11:45;;;;;;;4.38;1.23;;;;;;;8.17;100.00;99805.03;4924170;28;20622;-73
2023/04/13 10:14:23;;;;;;;4.30;1.20;;;;;;;8.05;100.00;99808.31;4952336;28;20070;-74
2023/04/13 10:17:21;;;;;;;1.98;1.00;;;;;;;8.11;100.00;99810.63;4953098;28;20136;-75
2023/04/13 10:19:48;;;;;;;3.53;1.10;;;;;;;7.97;100.00;99816.63;4924718;28;20614;-75
2023/04/13 10:22:15;;;;;;;2.80;1.10;;;;;;;7.83;100.00;99826.06;4954211;28;20916;-76
2023/04/13 10:24:41;;;;;;;2.75;0.82;;;;;;;7.75;100.00;99842.25;4959515;28;20031;-75
2023/04/13 10:27:15;;;;;;;3.08;1.00;;;;;;;7.70;100.00;99854.84;4918486;28;20046;-75
2023/04/13 10:29:41;;;;;;;1.25;0.88;;;;;;;7.63;100.00;99852.56;4960800;28;20038;-74
2023/04/13 10:32:07;;;;;;;2.92;1.30;;;;;;;7.59;100.00;99863.22;4956217;28;20541;-74
2023/04/13 10:34:34;;;;;;;2.88;1.10;;;;;;;7.61;100.00;99864.03;4942817;28;20034;-74
2023/04/13 10:37:05;;;;;;;2.35;1.20;;;;;;;7.51;100.00;99862.75;4957715;28;20041;-74
2023/04/13 10:39:34;;;;;;;3.35;0.80;;;;;;;7.35;100.00;99865.28;4958177;28;20161;-74
2023/04/13 10:42:08;;;;;;;4.43;1.38;;;;;;;7.26;100.00;99869.22;4956175;28;20055;-73
2023/04/13 10:44:45;;;;;;;3.30;1.30;;;;;;;7.28;100.00;99869.97;4956203;28;20038;-73
2023/04/13 10:47:12;;;;;;;4.47;1.20;;;;;;;7.38;100.00;99859.88;4957863;28;20043;-73
2023/04/13 10:49:38;;;;;;;6.00;1.50;;;;;;;7.50;100.00;99879.50;4941518;28;20054;-73
2023/04/13 10:52:04;;;;;;;6.82;1.60;;;;;;;7.56;100.00;99870.44;4934183;28;20041;-73
2023/04/13 10:54:30;;;;;;;8.95;2.20;;;;;;;7.63;100.00;99873.63;4907174;28;20030;-73
2023/04/13 10:57:01;;;;;;;8.40;1.70;;;;;;;7.69;100.00;99883.88;4918911;28;20050;-73
2023/04/13 10:59:44;;;;;;;8.43;2.08;;;;;;;7.74;100.00;99889.78;4953854;28;20050;-73
2023/04/13 11:02:12;;;;;;;6.35;2.03;;;;;;;7.75;100.00;99910.75;4940353;28;20050;-73
2023/04/13 11:04:40;;;;;;;7.38;1.65;;;;;;;7.78;100.00;99898.38;4931141;28;20041;-73
2023/04/13 11:07:07;;;;;;;6.35;1.90;;;;;;;7.82;100.00;99910.47;4931972;28;20073;-73
2023/04/13 11:09:33;;;;;;;5.25;1.48;;;;;;;7.88;100.00;99915.44;4933874;28;20047;-73
2023/04/13 11:11:58;;;;;;;7.55;1.77;;;;;;;7.96;100.00;99913.28;4929241;28;20053;-74
2023/04/13 11:14:24;;;;;;;5.35;1.83;;;;;;;8.00;100.00;99925.38;4936370;28;20042;-73
2023/04/13 11:16:50;;;;;;;4.53;1.40;;;;;;;8.05;100.00;99930.44;4929363;28;20650;-74
2023/04/13 11:19:15;;;;;;;5.13;1.50;;;;;;;8.09;100.00;99936.41;4934116;28;20043;-74
2023/04/13 11:21:43;;;;;;;4.57;1.38;;;;;;;8.15;100.00;99931.69;4935020;28;20039;-73
2023/04/13 11:24:09;;;;;;;3.53;1.20;;;;;;;8.23;100.00;99933.09;4934828;28;20935;-73
2023/04/13 11:26:39;;;;;;;7.10;1.70;;;;;;;8.31;100.00;99951.13;4948804;28;20034;-73
2023/04/13 11:29:05;;;;;;;6.47;1.90;;;;;;;8.34;100.00;99956.28;4916180;28;20534;-73
2023/04/13 11:31:38;;;;;;;5.85;2.05;;;;;;;8.41;100.00;99960.31;4933907;28;20058;-73
2023/04/13 11:34:05;;;;;;;7.35;1.80;;;;;;;8.45;100.00;99951.31;4938458;28;20069;-74
2023/04/13 11:36:32;;;;;;;3.83;1.50;;;;;;;8.47;100.00;99970.56;4934369;28;20038;-74